sensor_id;sensor_type;location;lat;lon;timestamp;P1;durP1;ratioP1;P2;durP2;ratioP2
803;SDS011;25687;49.976;8.240;2022-07-04T00:00:38;4.23;;;1.13;;
803;SDS011;25687;49.976;8.240;2022-07-04T00:03:04;2.70;;;1.20;;
803;SDS011;25687;49.976;8.240;2022-07-04T00:05:30;1.93;;;1.20;;
803;SDS011;25687;49.976;8.240;2022-07-04T00:07:55;1.50;;;1.07;;
803;SDS011;25687;49.976;8.240;2022-07-04T00:10:21;1.07;;;0.87;;
803;SDS011;25687;49.976;8.240;2022-07-04T00:12:46;1.13;;;1.00;;
803;SDS011;25687;49.976;8.240;2022-07-04T00:15:12;1.63;;;1.10;;
803;SDS011;25687;49.976;8.240;2022-07-04T00:17:38;1.73;;;1.00;;
803;SDS011;25687;49.976;8.240;2022-07-04T00:20:04;1.43;;;1.10;;
803;SDS011;25687;49.976;8.240;2022-07-04T00:22:30;3.07;;;1.20;;
803;SDS011;25687;49.976;8.240;2022-07-04T00:24:56;3.63;;;1.17;;
803;SDS011;25687;49.976;8.240;2022-07-04T00:27:21;2.97;;;1.33;;
803;SDS011;25687;49.976;8.240;2022-07-04T00:29:47;2.33;;;1.30;;
803;SDS011;25687;49.976;8.240;2022-07-04T00:32:12;4.77;;;1.40;;
803;SDS011;25687;49.976;8.240;2022-07-04T00:34:38;4.70;;;1.23;;
803;SDS011;25687;49.976;8.240;2022-07-04T00:37:03;2.60;;;1.33;;
803;SDS011;25687;49.976;8.240;2022-07-04T00:39:29;2.93;;;1.20;;
803;SDS011;25687;49.976;8.240;2022-07-04T00:41:55;2.20;;;1.20;;
803;SDS011;25687;49.976;8.240;2022-07-04T00:44:20;1.40;;;1.13;;
803;SDS011;25687;49.976;8.240;2022-07-04T00:46:46;1.57;;;1.10;;
803;SDS011;25687;49.976;8.240;2022-07-04T00:49:13;4.77;;;1.63;;
803;SDS011;25687;49.976;8.240;2022-07-04T00:51:40;2.07;;;1.17;;
803;SDS011;25687;49.976;8.240;2022-07-04T00:54:07;3.33;;;1.40;;
803;SDS011;25687;49.976;8.240;2022-07-04T00:56:35;4.53;;;1.30;;
803;SDS011;25687;49.976;8.240;2022-07-04T00:59:02;8.73;;;1.40;;
803;SDS011;25687;49.976;8.240;2022-07-04T01:01:27;2.60;;;1.47;;
803;SDS011;25687;49.976;8.240;2022-07-04T01:03:53;3.23;;;1.37;;
803;SDS011;25687;49.976;8.240;2022-07-04T01:06:18;2.67;;;1.33;;
803;SDS011;25687;49.976;8.240;2022-07-04T01:08:44;2.27;;;1.50;;
803;SDS011;25687;49.976;8.240;2022-07-04T01:11:10;2.00;;;1.70;;
803;SDS011;25687;49.976;8.240;2022-07-04T01:13:36;2.60;;;1.40;;
803;SDS011;25687;49.976;8.240;2022-07-04T01:16:02;3.77;;;1.47;;
803;SDS011;25687;49.976;8.240;2022-07-04T01:18:28;6.03;;;1.50;;
803;SDS011;25687;49.976;8.240;2022-07-04T01:20:53;5.00;;;1.13;;
803;SDS011;25687;49.976;8.240;2022-07-04T01:23:19;4.40;;;1.50;;
803;SDS011;25687;49.976;8.240;2022-07-04T01:25:44;5.47;;;1.50;;
803;SDS011;25687;49.976;8.240;2022-07-04T01:28:10;3.20;;;1.73;;
803;SDS011;25687;49.976;8.240;2022-07-04T01:30:36;3.37;;;1.60;;
803;SDS011;25687;49.976;8.240;2022-07-04T01:33:02;3.90;;;1.67;;
803;SDS011;25687;49.976;8.240;2022-07-04T01:35:28;4.47;;;1.33;;
803;SDS011;25687;49.976;8.240;2022-07-04T01:37:54;2.70;;;1.67;;
803;SDS011;25687;49.976;8.240;2022-07-04T01:40:19;1.67;;;1.53;;
803;SDS011;25687;49.976;8.240;2022-07-04T01:42:44;4.17;;;1.57;;
803;SDS011;25687;49.976;8.240;2022-07-04T01:45:10;4.17;;;1.63;;
803;SDS011;25687;49.976;8.240;2022-07-04T01:47:36;2.90;;;1.60;;
803;SDS011;25687;49.976;8.240;2022-07-04T01:50:02;5.80;;;1.60;;
803;SDS011;25687;49.976;8.240;2022-07-04T01:52:29;2.97;;;1.60;;
803;SDS011;25687;49.976;8.240;2022-07-04T01:54:54;2.70;;;1.50;;
803;SDS011;25687;49.976;8.240;2022-07-04T01:57:20;3.73;;;1.70;;
803;SDS011;25687;49.976;8.240;2022-07-04T01:59:45;1.90;;;1.30;;
803;SDS011;25687;49.976;8.240;2022-07-04T02:02:29;3.53;;;1.73;;
803;SDS011;25687;49.976;8.240;2022-07-04T02:04:55;4.90;;;1.60;;
803;SDS011;25687;49.976;8.240;2022-07-04T02:07:20;1.90;;;1.70;;
803;SDS011;25687;49.976;8.240;2022-07-04T02:09:46;3.37;;;1.80;;
803;SDS011;25687;49.976;8.240;2022-07-04T02:12:11;5.30;;;2.10;;
803;SDS011;25687;49.976;8.240;2022-07-04T02:14:55;2.43;;;1.90;;
803;SDS011;25687;49.976;8.240;2022-07-04T02:17:20;8.03;;;2.07;;
803;SDS011;25687;49.976;8.240;2022-07-04T02:19:46;3.17;;;1.77;;
803;SDS011;25687;49.976;8.240;2022-07-04T02:22:12;3.20;;;2.10;;
803;SDS011;25687;49.976;8.240;2022-07-04T02:24:38;4.20;;;1.93;;
803;SDS011;25687;49.976;8.240;2022-07-04T02:27:03;3.47;;;1.80;;
803;SDS011;25687;49.976;8.240;2022-07-04T02:29:29;4.43;;;2.00;;
803;SDS011;25687;49.976;8.240;2022-07-04T02:31:54;5.17;;;1.90;;
803;SDS011;25687;49.976;8.240;2022-07-04T02:34:19;2.27;;;1.70;;
803;SDS011;25687;49.976;8.240;2022-07-04T02:36:45;2.30;;;1.73;;
803;SDS011;25687;49.976;8.240;2022-07-04T02:39:10;2.33;;;1.97;;
803;SDS011;25687;49.976;8.240;2022-07-04T02:41:35;2.70;;;1.83;;
803;SDS011;25687;49.976;8.240;2022-07-04T02:44:01;5.50;;;2.30;;
803;SDS011;25687;49.976;8.240;2022-07-04T02:46:26;3.07;;;1.70;;
803;SDS011;25687;49.976;8.240;2022-07-04T02:48:52;4.50;;;2.20;;
803;SDS011;25687;49.976;8.240;2022-07-04T02:51:18;4.47;;;2.13;;
803;SDS011;25687;49.976;8.240;2022-07-04T02:53:43;2.47;;;2.00;;
803;SDS011;25687;49.976;8.240;2022-07-04T02:56:08;4.33;;;1.93;;
803;SDS011;25687;49.976;8.240;2022-07-04T02:58:34;2.67;;;2.00;;
803;SDS011;25687;49.976;8.240;2022-07-04T03:00:59;2.67;;;1.77;;
803;SDS011;25687;49.976;8.240;2022-07-04T03:03:25;2.47;;;1.90;;
803;SDS011;25687;49.976;8.240;2022-07-04T03:05:51;3.07;;;1.83;;
803;SDS011;25687;49.976;8.240;2022-07-04T03:08:17;5.03;;;2.33;;
803;SDS011;25687;49.976;8.240;2022-07-04T03:10:42;3.17;;;1.77;;
803;SDS011;25687;49.976;8.240;2022-07-04T03:13:08;3.97;;;2.00;;
803;SDS011;25687;49.976;8.240;2022-07-04T03:15:33;4.10;;;2.07;;
803;SDS011;25687;49.976;8.240;2022-07-04T03:17:59;2.57;;;1.90;;
803;SDS011;25687;49.976;8.240;2022-07-04T03:20:24;6.77;;;2.47;;
803;SDS011;25687;49.976;8.240;2022-07-04T03:22:49;4.80;;;2.10;;
803;SDS011;25687;49.976;8.240;2022-07-04T03:25:16;4.10;;;1.70;;
803;SDS011;25687;49.976;8.240;2022-07-04T03:27:41;3.13;;;2.03;;
803;SDS011;25687;49.976;8.240;2022-07-04T03:30:07;3.40;;;2.00;;
803;SDS011;25687;49.976;8.240;2022-07-04T03:32:32;3.57;;;1.93;;
803;SDS011;25687;49.976;8.240;2022-07-04T03:34:57;4.00;;;2.60;;
803;SDS011;25687;49.976;8.240;2022-07-04T03:37:22;3.43;;;2.00;;
803;SDS011;25687;49.976;8.240;2022-07-04T03:39:48;8.00;;;2.73;;
803;SDS011;25687;49.976;8.240;2022-07-04T03:42:13;3.37;;;1.73;;
803;SDS011;25687;49.976;8.240;2022-07-04T03:44:38;2.97;;;2.00;;
803;SDS011;25687;49.976;8.240;2022-07-04T03:47:04;3.83;;;2.40;;
803;SDS011;25687;49.976;8.240;2022-07-04T03:49:29;3.37;;;2.10;;
803;SDS011;25687;49.976;8.240;2022-07-04T03:51:54;4.90;;;1.80;;
803;SDS011;25687;49.976;8.240;2022-07-04T03:54:19;5.53;;;2.03;;
803;SDS011;25687;49.976;8.240;2022-07-04T03:56:45;3.30;;;1.83;;
803;SDS011;25687;49.976;8.240;2022-07-04T03:59:10;5.63;;;2.10;;
803;SDS011;25687;49.976;8.240;2022-07-04T04:01:35;2.70;;;1.93;;
803;SDS011;25687;49.976;8.240;2022-07-04T04:04:01;2.50;;;1.80;;
803;SDS011;25687;49.976;8.240;2022-07-04T04:06:45;6.90;;;2.13;;
803;SDS011;25687;49.976;8.240;2022-07-04T04:09:10;4.07;;;2.10;;
803;SDS011;25687;49.976;8.240;2022-07-04T04:11:41;3.83;;;2.00;;
803;SDS011;25687;49.976;8.240;2022-07-04T04:14:06;5.33;;;1.97;;
803;SDS011;25687;49.976;8.240;2022-07-04T04:16:31;5.40;;;2.00;;
803;SDS011;25687;49.976;8.240;2022-07-04T04:18:57;2.33;;;1.87;;
803;SDS011;25687;49.976;8.240;2022-07-04T04:21:22;2.97;;;2.10;;
803;SDS011;25687;49.976;8.240;2022-07-04T04:23:47;2.50;;;1.93;;
803;SDS011;25687;49.976;8.240;2022-07-04T04:26:13;4.13;;;2.03;;
803;SDS011;25687;49.976;8.240;2022-07-04T04:28:38;4.00;;;2.47;;
803;SDS011;25687;49.976;8.240;2022-07-04T04:31:03;5.37;;;2.03;;
803;SDS011;25687;49.976;8.240;2022-07-04T04:33:28;2.10;;;1.90;;
803;SDS011;25687;49.976;8.240;2022-07-04T04:35:54;4.13;;;1.90;;
803;SDS011;25687;49.976;8.240;2022-07-04T04:38:19;3.30;;;2.00;;
803;SDS011;25687;49.976;8.240;2022-07-04T04:40:44;2.37;;;2.07;;
803;SDS011;25687;49.976;8.240;2022-07-04T04:43:09;3.87;;;2.30;;
803;SDS011;25687;49.976;8.240;2022-07-04T04:45:35;2.73;;;2.20;;
803;SDS011;25687;49.976;8.240;2022-07-04T04:48:00;4.17;;;2.03;;
803;SDS011;25687;49.976;8.240;2022-07-04T04:50:25;4.87;;;1.90;;
803;SDS011;25687;49.976;8.240;2022-07-04T04:52:51;5.30;;;2.10;;
803;SDS011;25687;49.976;8.240;2022-07-04T04:55:16;4.90;;;2.07;;
803;SDS011;25687;49.976;8.240;2022-07-04T04:57:41;6.13;;;2.00;;
803;SDS011;25687;49.976;8.240;2022-07-04T05:00:07;3.83;;;1.73;;
803;SDS011;25687;49.976;8.240;2022-07-04T05:02:33;2.60;;;1.50;;
803;SDS011;25687;49.976;8.240;2022-07-04T05:04:58;2.30;;;1.40;;
803;SDS011;25687;49.976;8.240;2022-07-04T05:07:23;2.40;;;1.80;;
803;SDS011;25687;49.976;8.240;2022-07-04T05:09:48;2.37;;;1.40;;
803;SDS011;25687;49.976;8.240;2022-07-04T05:12:14;3.53;;;1.60;;
803;SDS011;25687;49.976;8.240;2022-07-04T05:14:40;5.57;;;1.60;;
803;SDS011;25687;49.976;8.240;2022-07-04T05:17:05;5.37;;;1.90;;
803;SDS011;25687;49.976;8.240;2022-07-04T05:19:31;1.80;;;1.60;;
803;SDS011;25687;49.976;8.240;2022-07-04T05:21:56;2.93;;;1.60;;
803;SDS011;25687;49.976;8.240;2022-07-04T05:24:21;2.63;;;1.40;;
803;SDS011;25687;49.976;8.240;2022-07-04T05:26:47;2.20;;;1.47;;
803;SDS011;25687;49.976;8.240;2022-07-04T05:29:12;4.93;;;1.63;;
803;SDS011;25687;49.976;8.240;2022-07-04T05:31:38;5.70;;;1.53;;
803;SDS011;25687;49.976;8.240;2022-07-04T05:34:03;1.40;;;1.20;;
803;SDS011;25687;49.976;8.240;2022-07-04T05:36:29;4.93;;;1.67;;
803;SDS011;25687;49.976;8.240;2022-07-04T05:38:54;2.80;;;1.33;;
803;SDS011;25687;49.976;8.240;2022-07-04T05:41:19;1.60;;;1.40;;
803;SDS011;25687;49.976;8.240;2022-07-04T05:43:45;4.40;;;1.50;;
803;SDS011;25687;49.976;8.240;2022-07-04T05:46:10;2.20;;;1.80;;
803;SDS011;25687;49.976;8.240;2022-07-04T05:48:36;3.70;;;1.50;;
803;SDS011;25687;49.976;8.240;2022-07-04T05:51:04;2.40;;;1.47;;
803;SDS011;25687;49.976;8.240;2022-07-04T05:53:30;2.80;;;1.50;;
803;SDS011;25687;49.976;8.240;2022-07-04T05:55:56;2.20;;;1.43;;
803;SDS011;25687;49.976;8.240;2022-07-04T05:58:21;4.60;;;1.30;;
803;SDS011;25687;49.976;8.240;2022-07-04T06:00:46;2.73;;;1.57;;
803;SDS011;25687;49.976;8.240;2022-07-04T06:03:12;3.37;;;1.20;;
803;SDS011;25687;49.976;8.240;2022-07-04T06:05:37;4.13;;;1.20;;
803;SDS011;25687;49.976;8.240;2022-07-04T06:08:03;4.67;;;1.60;;
803;SDS011;25687;49.976;8.240;2022-07-04T06:10:28;3.73;;;1.17;;
803;SDS011;25687;49.976;8.240;2022-07-04T06:12:54;3.80;;;1.97;;
803;SDS011;25687;49.976;8.240;2022-07-04T06:15:19;2.70;;;1.50;;
803;SDS011;25687;49.976;8.240;2022-07-04T06:17:44;3.23;;;1.50;;
803;SDS011;25687;49.976;8.240;2022-07-04T06:20:10;4.40;;;1.50;;
803;SDS011;25687;49.976;8.240;2022-07-04T06:22:42;2.00;;;1.67;;
803;SDS011;25687;49.976;8.240;2022-07-04T06:25:12;2.80;;;1.40;;
803;SDS011;25687;49.976;8.240;2022-07-04T06:27:39;2.10;;;1.17;;
803;SDS011;25687;49.976;8.240;2022-07-04T06:30:05;5.07;;;1.67;;
803;SDS011;25687;49.976;8.240;2022-07-04T06:32:31;4.35;;;1.00;;
803;SDS011;25687;49.976;8.240;2022-07-04T06:35:06;4.15;;;1.08;;
803;SDS011;25687;49.976;8.240;2022-07-04T06:37:50;3.30;;;1.30;;
803;SDS011;25687;49.976;8.240;2022-07-04T06:40:16;2.65;;;1.20;;
803;SDS011;25687;49.976;8.240;2022-07-04T06:42:41;5.90;;;1.10;;
803;SDS011;25687;49.976;8.240;2022-07-04T06:45:07;4.15;;;1.52;;
803;SDS011;25687;49.976;8.240;2022-07-04T06:47:33;2.35;;;1.13;;
803;SDS011;25687;49.976;8.240;2022-07-04T06:49:58;2.97;;;1.17;;
803;SDS011;25687;49.976;8.240;2022-07-04T06:52:23;2.30;;;0.90;;
803;SDS011;25687;49.976;8.240;2022-07-04T06:54:48;2.47;;;1.13;;
803;SDS011;25687;49.976;8.240;2022-07-04T06:57:14;4.88;;;1.27;;
803;SDS011;25687;49.976;8.240;2022-07-04T06:59:39;2.55;;;1.40;;
803;SDS011;25687;49.976;8.240;2022-07-04T07:02:04;5.32;;;1.50;;
803;SDS011;25687;49.976;8.240;2022-07-04T07:04:29;3.05;;;1.30;;
803;SDS011;25687;49.976;8.240;2022-07-04T07:06:55;4.28;;;1.33;;
803;SDS011;25687;49.976;8.240;2022-07-04T07:09:20;2.90;;;1.10;;
803;SDS011;25687;49.976;8.240;2022-07-04T07:11:45;1.50;;;1.13;;
803;SDS011;25687;49.976;8.240;2022-07-04T07:14:10;1.73;;;1.00;;
803;SDS011;25687;49.976;8.240;2022-07-04T07:16:36;4.22;;;0.98;;
803;SDS011;25687;49.976;8.240;2022-07-04T07:19:01;2.40;;;1.15;;
803;SDS011;25687;49.976;8.240;2022-07-04T07:21:26;6.68;;;1.50;;
803;SDS011;25687;49.976;8.240;2022-07-04T07:23:52;1.98;;;1.00;;
803;SDS011;25687;49.976;8.240;2022-07-04T07:26:17;2.35;;;1.20;;
803;SDS011;25687;49.976;8.240;2022-07-04T07:28:42;3.15;;;1.30;;
803;SDS011;25687;49.976;8.240;2022-07-04T07:31:08;1.60;;;0.80;;
803;SDS011;25687;49.976;8.240;2022-07-04T07:33:33;1.95;;;1.02;;
803;SDS011;25687;49.976;8.240;2022-07-04T07:35:58;1.95;;;0.98;;
803;SDS011;25687;49.976;8.240;2022-07-04T07:38:24;2.47;;;0.80;;
803;SDS011;25687;49.976;8.240;2022-07-04T07:40:49;2.65;;;1.00;;
803;SDS011;25687;49.976;8.240;2022-07-04T07:43:16;4.35;;;1.17;;
803;SDS011;25687;49.976;8.240;2022-07-04T07:45:41;4.25;;;1.15;;
803;SDS011;25687;49.976;8.240;2022-07-04T07:48:06;2.40;;;0.77;;
803;SDS011;25687;49.976;8.240;2022-07-04T07:50:31;2.88;;;1.08;;
803;SDS011;25687;49.976;8.240;2022-07-04T07:52:57;2.15;;;1.10;;
803;SDS011;25687;49.976;8.240;2022-07-04T07:55:22;3.53;;;1.00;;
803;SDS011;25687;49.976;8.240;2022-07-04T07:57:47;2.65;;;1.00;;
803;SDS011;25687;49.976;8.240;2022-07-04T08:00:13;2.38;;;0.70;;
803;SDS011;25687;49.976;8.240;2022-07-04T08:02:38;2.40;;;0.95;;
803;SDS011;25687;49.976;8.240;2022-07-04T08:05:22;1.35;;;0.85;;
803;SDS011;25687;49.976;8.240;2022-07-04T08:07:48;4.80;;;0.73;;
803;SDS011;25687;49.976;8.240;2022-07-04T08:10:13;5.75;;;1.08;;
803;SDS011;25687;49.976;8.240;2022-07-04T08:12:38;2.28;;;0.85;;
803;SDS011;25687;49.976;8.240;2022-07-04T08:15:04;2.05;;;0.98;;
803;SDS011;25687;49.976;8.240;2022-07-04T08:17:30;2.08;;;0.90;;
803;SDS011;25687;49.976;8.240;2022-07-04T08:19:55;2.88;;;0.90;;
803;SDS011;25687;49.976;8.240;2022-07-04T08:22:20;2.03;;;0.98;;
803;SDS011;25687;49.976;8.240;2022-07-04T08:24:46;2.63;;;0.88;;
803;SDS011;25687;49.976;8.240;2022-07-04T08:27:12;2.30;;;0.82;;
803;SDS011;25687;49.976;8.240;2022-07-04T08:29:38;4.35;;;1.00;;
803;SDS011;25687;49.976;8.240;2022-07-04T08:32:03;2.30;;;0.75;;
803;SDS011;25687;49.976;8.240;2022-07-04T08:34:32;4.10;;;0.98;;
803;SDS011;25687;49.976;8.240;2022-07-04T08:36:57;1.02;;;0.70;;
803;SDS011;25687;49.976;8.240;2022-07-04T08:39:22;3.35;;;1.17;;
803;SDS011;25687;49.976;8.240;2022-07-04T08:41:48;1.02;;;0.60;;
803;SDS011;25687;49.976;8.240;2022-07-04T08:44:16;2.53;;;1.00;;
803;SDS011;25687;49.976;8.240;2022-07-04T08:46:44;1.83;;;0.85;;
803;SDS011;25687;49.976;8.240;2022-07-04T08:49:11;2.53;;;1.05;;
803;SDS011;25687;49.976;8.240;2022-07-04T08:51:52;2.35;;;0.70;;
803;SDS011;25687;49.976;8.240;2022-07-04T08:54:23;2.75;;;0.90;;
803;SDS011;25687;49.976;8.240;2022-07-04T08:57:08;1.25;;;0.77;;
803;SDS011;25687;49.976;8.240;2022-07-04T08:59:53;3.38;;;0.80;;
803;SDS011;25687;49.976;8.240;2022-07-04T09:02:20;1.15;;;0.68;;
803;SDS011;25687;49.976;8.240;2022-07-04T09:04:47;3.75;;;0.98;;
803;SDS011;25687;49.976;8.240;2022-07-04T09:07:14;3.13;;;0.90;;
803;SDS011;25687;49.976;8.240;2022-07-04T09:09:40;1.25;;;0.60;;
803;SDS011;25687;49.976;8.240;2022-07-04T09:12:06;2.13;;;0.65;;
803;SDS011;25687;49.976;8.240;2022-07-04T09:14:33;3.60;;;0.70;;
803;SDS011;25687;49.976;8.240;2022-07-04T09:16:58;1.17;;;0.63;;
803;SDS011;25687;49.976;8.240;2022-07-04T09:19:24;1.55;;;0.80;;
803;SDS011;25687;49.976;8.240;2022-07-04T09:21:50;0.98;;;0.57;;
803;SDS011;25687;49.976;8.240;2022-07-04T09:24:15;0.85;;;0.52;;
803;SDS011;25687;49.976;8.240;2022-07-04T09:26:43;1.35;;;0.57;;
803;SDS011;25687;49.976;8.240;2022-07-04T09:29:09;2.42;;;0.88;;
803;SDS011;25687;49.976;8.240;2022-07-04T09:31:35;2.80;;;0.60;;
803;SDS011;25687;49.976;8.240;2022-07-04T09:34:03;1.55;;;0.70;;
803;SDS011;25687;49.976;8.240;2022-07-04T09:36:30;2.42;;;0.88;;
803;SDS011;25687;49.976;8.240;2022-07-04T09:39:03;3.30;;;0.85;;
803;SDS011;25687;49.976;8.240;2022-07-04T09:41:29;1.90;;;0.77;;
803;SDS011;25687;49.976;8.240;2022-07-04T09:44:04;1.80;;;0.63;;
803;SDS011;25687;49.976;8.240;2022-07-04T09:46:30;2.05;;;0.70;;
803;SDS011;25687;49.976;8.240;2022-07-04T09:48:56;4.30;;;0.82;;
803;SDS011;25687;49.976;8.240;2022-07-04T09:54:15;2.33;;;0.68;;
803;SDS011;25687;49.976;8.240;2022-07-04T09:56:46;1.05;;;0.70;;
803;SDS011;25687;49.976;8.240;2022-07-04T09:59:13;1.70;;;0.88;;
803;SDS011;25687;49.976;8.240;2022-07-04T10:01:38;2.60;;;0.57;;
803;SDS011;25687;49.976;8.240;2022-07-04T10:04:04;2.75;;;0.80;;
803;SDS011;25687;49.976;8.240;2022-07-04T10:06:32;1.42;;;0.70;;
803;SDS011;25687;49.976;8.240;2022-07-04T10:09:11;1.70;;;0.73;;
803;SDS011;25687;49.976;8.240;2022-07-04T10:11:39;1.73;;;0.75;;
803;SDS011;25687;49.976;8.240;2022-07-04T10:14:07;2.78;;;0.60;;
803;SDS011;25687;49.976;8.240;2022-07-04T10:16:33;0.98;;;0.60;;
803;SDS011;25687;49.976;8.240;2022-07-04T10:19:00;3.78;;;0.80;;
803;SDS011;25687;49.976;8.240;2022-07-04T10:21:25;2.80;;;0.60;;
803;SDS011;25687;49.976;8.240;2022-07-04T10:23:52;1.85;;;0.70;;
803;SDS011;25687;49.976;8.240;2022-07-04T10:26:18;1.92;;;0.65;;
803;SDS011;25687;49.976;8.240;2022-07-04T10:28:45;1.05;;;0.50;;
803;SDS011;25687;49.976;8.240;2022-07-04T10:31:12;3.35;;;0.70;;
803;SDS011;25687;49.976;8.240;2022-07-04T10:33:38;0.70;;;0.57;;
803;SDS011;25687;49.976;8.240;2022-07-04T10:36:12;2.55;;;0.80;;
803;SDS011;25687;49.976;8.240;2022-07-04T10:38:48;1.75;;;0.68;;
803;SDS011;25687;49.976;8.240;2022-07-04T10:41:16;2.67;;;0.55;;
803;SDS011;25687;49.976;8.240;2022-07-04T10:54:16;1.05;;;0.68;;
803;SDS011;25687;49.976;8.240;2022-07-04T11:02:25;3.97;;;1.00;;
803;SDS011;25687;49.976;8.240;2022-07-04T11:04:53;2.15;;;0.68;;
803;SDS011;25687;49.976;8.240;2022-07-04T11:17:49;6.72;;;0.80;;
803;SDS011;25687;49.976;8.240;2022-07-04T11:20:16;2.40;;;0.70;;
803;SDS011;25687;49.976;8.240;2022-07-04T11:22:43;1.27;;;1.00;;
803;SDS011;25687;49.976;8.240;2022-07-04T11:25:09;3.10;;;0.80;;
803;SDS011;25687;49.976;8.240;2022-07-04T11:27:36;2.40;;;1.05;;
803;SDS011;25687;49.976;8.240;2022-07-04T11:30:02;1.90;;;0.80;;
803;SDS011;25687;49.976;8.240;2022-07-04T11:32:31;4.93;;;0.50;;
803;SDS011;25687;49.976;8.240;2022-07-04T11:34:59;1.75;;;0.70;;
803;SDS011;25687;49.976;8.240;2022-07-04T11:37:24;1.35;;;0.50;;
803;SDS011;25687;49.976;8.240;2022-07-04T11:39:50;0.63;;;0.55;;
803;SDS011;25687;49.976;8.240;2022-07-04T11:42:39;0.95;;;0.50;;
803;SDS011;25687;49.976;8.240;2022-07-04T11:45:23;2.90;;;0.85;;
803;SDS011;25687;49.976;8.240;2022-07-04T11:47:48;4.03;;;0.60;;
803;SDS011;25687;49.976;8.240;2022-07-04T11:50:14;1.02;;;0.80;;
803;SDS011;25687;49.976;8.240;2022-07-04T11:52:45;1.35;;;0.70;;
803;SDS011;25687;49.976;8.240;2022-07-04T11:55:13;1.00;;;0.57;;
803;SDS011;25687;49.976;8.240;2022-07-04T11:57:41;4.57;;;0.73;;
803;SDS011;25687;49.976;8.240;2022-07-04T12:00:12;0.87;;;0.50;;
803;SDS011;25687;49.976;8.240;2022-07-04T12:02:40;3.67;;;0.90;;
803;SDS011;25687;49.976;8.240;2022-07-04T12:05:07;0.57;;;0.55;;
803;SDS011;25687;49.976;8.240;2022-07-04T12:07:36;0.60;;;0.60;;
803;SDS011;25687;49.976;8.240;2022-07-04T12:15:24;0.75;;;0.68;;
803;SDS011;25687;49.976;8.240;2022-07-04T12:17:51;3.03;;;1.15;;
803;SDS011;25687;49.976;8.240;2022-07-04T12:20:19;2.60;;;0.80;;
803;SDS011;25687;49.976;8.240;2022-07-04T12:22:50;1.50;;;0.60;;
803;SDS011;25687;49.976;8.240;2022-07-04T12:27:51;1.70;;;0.70;;
803;SDS011;25687;49.976;8.240;2022-07-04T12:30:18;3.90;;;0.82;;
803;SDS011;25687;49.976;8.240;2022-07-04T12:32:44;2.10;;;0.82;;
803;SDS011;25687;49.976;8.240;2022-07-04T12:35:31;1.58;;;0.60;;
803;SDS011;25687;49.976;8.240;2022-07-04T12:38:10;0.73;;;0.50;;
803;SDS011;25687;49.976;8.240;2022-07-04T12:40:36;1.52;;;0.80;;
803;SDS011;25687;49.976;8.240;2022-07-04T12:43:13;1.17;;;0.60;;
803;SDS011;25687;49.976;8.240;2022-07-04T12:45:46;0.95;;;0.68;;
803;SDS011;25687;49.976;8.240;2022-07-04T12:48:20;0.93;;;0.52;;
803;SDS011;25687;49.976;8.240;2022-07-04T12:50:52;0.98;;;0.60;;
803;SDS011;25687;49.976;8.240;2022-07-04T12:53:19;1.08;;;0.60;;
803;SDS011;25687;49.976;8.240;2022-07-04T12:55:46;0.82;;;0.60;;
803;SDS011;25687;49.976;8.240;2022-07-04T12:58:12;0.88;;;0.50;;
803;SDS011;25687;49.976;8.240;2022-07-04T13:00:38;7.00;;;1.45;;
803;SDS011;25687;49.976;8.240;2022-07-04T13:03:04;1.90;;;0.90;;
803;SDS011;25687;49.976;8.240;2022-07-04T13:05:31;3.20;;;0.60;;
803;SDS011;25687;49.976;8.240;2022-07-04T13:07:58;3.58;;;0.70;;
803;SDS011;25687;49.976;8.240;2022-07-04T13:10:24;3.75;;;0.73;;
803;SDS011;25687;49.976;8.240;2022-07-04T13:12:49;1.17;;;0.45;;
803;SDS011;25687;49.976;8.240;2022-07-04T13:15:14;3.40;;;0.57;;
803;SDS011;25687;49.976;8.240;2022-07-04T13:17:40;0.57;;;0.52;;
803;SDS011;25687;49.976;8.240;2022-07-04T13:20:05;1.00;;;0.60;;
803;SDS011;25687;49.976;8.240;2022-07-04T13:22:31;1.42;;;0.60;;
803;SDS011;25687;49.976;8.240;2022-07-04T13:24:56;3.00;;;0.50;;
803;SDS011;25687;49.976;8.240;2022-07-04T13:27:21;1.77;;;0.60;;
803;SDS011;25687;49.976;8.240;2022-07-04T13:29:47;0.88;;;0.60;;
803;SDS011;25687;49.976;8.240;2022-07-04T13:32:12;2.58;;;0.90;;
803;SDS011;25687;49.976;8.240;2022-07-04T13:34:38;1.13;;;0.50;;
803;SDS011;25687;49.976;8.240;2022-07-04T13:37:04;3.42;;;0.60;;
803;SDS011;25687;49.976;8.240;2022-07-04T13:39:30;3.97;;;1.00;;
803;SDS011;25687;49.976;8.240;2022-07-04T13:41:55;2.67;;;0.60;;
803;SDS011;25687;49.976;8.240;2022-07-04T13:44:21;2.33;;;0.80;;
803;SDS011;25687;49.976;8.240;2022-07-04T13:46:46;3.88;;;0.65;;
803;SDS011;25687;49.976;8.240;2022-07-04T13:49:11;0.95;;;0.63;;
803;SDS011;25687;49.976;8.240;2022-07-04T13:51:37;0.90;;;0.57;;
803;SDS011;25687;49.976;8.240;2022-07-04T13:54:03;0.63;;;0.60;;
803;SDS011;25687;49.976;8.240;2022-07-04T13:56:29;2.53;;;0.85;;
803;SDS011;25687;49.976;8.240;2022-07-04T13:58:54;1.42;;;0.70;;
803;SDS011;25687;49.976;8.240;2022-07-04T14:01:19;0.98;;;0.52;;
803;SDS011;25687;49.976;8.240;2022-07-04T14:03:45;1.88;;;0.90;;
803;SDS011;25687;49.976;8.240;2022-07-04T14:06:11;2.03;;;0.70;;
803;SDS011;25687;49.976;8.240;2022-07-04T14:08:37;1.42;;;0.47;;
803;SDS011;25687;49.976;8.240;2022-07-04T14:11:02;1.55;;;0.60;;
803;SDS011;25687;49.976;8.240;2022-07-04T14:13:28;2.42;;;0.65;;
803;SDS011;25687;49.976;8.240;2022-07-04T14:15:53;0.57;;;0.57;;
803;SDS011;25687;49.976;8.240;2022-07-04T14:18:19;0.80;;;0.50;;
803;SDS011;25687;49.976;8.240;2022-07-04T14:20:44;1.88;;;0.60;;
803;SDS011;25687;49.976;8.240;2022-07-04T14:23:10;4.35;;;0.65;;
803;SDS011;25687;49.976;8.240;2022-07-04T14:25:36;3.42;;;0.80;;
803;SDS011;25687;49.976;8.240;2022-07-04T14:28:02;2.33;;;0.68;;
803;SDS011;25687;49.976;8.240;2022-07-04T14:30:27;3.17;;;0.80;;
803;SDS011;25687;49.976;8.240;2022-07-04T14:32:53;3.80;;;0.75;;
803;SDS011;25687;49.976;8.240;2022-07-04T14:35:18;0.55;;;0.40;;
803;SDS011;25687;49.976;8.240;2022-07-04T14:37:43;0.88;;;0.43;;
803;SDS011;25687;49.976;8.240;2022-07-04T14:40:09;1.52;;;0.73;;
803;SDS011;25687;49.976;8.240;2022-07-04T14:42:35;2.15;;;0.60;;
803;SDS011;25687;49.976;8.240;2022-07-04T14:45:00;1.23;;;0.55;;
803;SDS011;25687;49.976;8.240;2022-07-04T14:47:25;1.92;;;0.68;;
803;SDS011;25687;49.976;8.240;2022-07-04T14:49:51;1.33;;;0.65;;
803;SDS011;25687;49.976;8.240;2022-07-04T14:52:16;0.95;;;0.60;;
803;SDS011;25687;49.976;8.240;2022-07-04T14:54:41;2.55;;;0.68;;
803;SDS011;25687;49.976;8.240;2022-07-04T14:57:06;1.83;;;0.52;;
803;SDS011;25687;49.976;8.240;2022-07-04T14:59:32;2.60;;;0.70;;
803;SDS011;25687;49.976;8.240;2022-07-04T15:02:00;2.28;;;0.70;;
803;SDS011;25687;49.976;8.240;2022-07-04T15:04:26;1.88;;;0.68;;
803;SDS011;25687;49.976;8.240;2022-07-04T15:06:52;2.70;;;0.52;;
803;SDS011;25687;49.976;8.240;2022-07-04T15:09:18;1.40;;;0.70;;
803;SDS011;25687;49.976;8.240;2022-07-04T15:11:43;2.38;;;0.60;;
803;SDS011;25687;49.976;8.240;2022-07-04T15:14:12;1.00;;;0.70;;
803;SDS011;25687;49.976;8.240;2022-07-04T15:16:37;0.63;;;0.40;;
803;SDS011;25687;49.976;8.240;2022-07-04T15:19:03;1.15;;;0.68;;
803;SDS011;25687;49.976;8.240;2022-07-04T15:21:29;1.05;;;0.80;;
803;SDS011;25687;49.976;8.240;2022-07-04T15:24:12;2.30;;;0.63;;
803;SDS011;25687;49.976;8.240;2022-07-04T15:26:43;1.55;;;0.80;;
803;SDS011;25687;49.976;8.240;2022-07-04T15:29:10;0.77;;;0.52;;
803;SDS011;25687;49.976;8.240;2022-07-04T15:31:36;1.25;;;0.60;;
803;SDS011;25687;49.976;8.240;2022-07-04T15:34:02;1.50;;;0.70;;
803;SDS011;25687;49.976;8.240;2022-07-04T15:36:27;3.17;;;0.70;;
803;SDS011;25687;49.976;8.240;2022-07-04T15:38:52;0.98;;;0.50;;
803;SDS011;25687;49.976;8.240;2022-07-04T15:41:18;2.72;;;0.63;;
803;SDS011;25687;49.976;8.240;2022-07-04T15:43:43;2.03;;;0.60;;
803;SDS011;25687;49.976;8.240;2022-07-04T15:46:09;1.20;;;0.70;;
803;SDS011;25687;49.976;8.240;2022-07-04T15:48:35;1.70;;;0.60;;